EZY83CE LTAI-EGPH
Flight info
| Callsign | EZY83CE |
|---|---|
| Flight time | N/A |
| Altitude | 34000 |
| Route | EKNUD UQ26 TUDBU DCT GRN/N0447F360 T226 NAVOD DCT SODGO DCT INVED DCT BEGLA DCT UBUXI DCT DITIS DCT VARIK DCT KATCE DCT HMM L602 TENLI DCT BERGI L602 SUPUR P1 GODOS DCT AGPED |
| Aircraft | A320/M-SDE2E3FGHIJ1RWXYZ/LB1 |
Departure
| Time | N/A |
|---|---|
| Airport | Antalya International Airport (LTAI) |
Arrival
| Time | 2026-04-20 18:44 |
|---|---|
| Airport | Edinburgh Airport (EGPH) |
| Time | Latitude | Longitude | Altitude | Speed | Heading |
|---|---|---|---|---|---|
| 2026-04-20 16:36 | 48.50869 | 15.88938 | 35983 ft | 400 kts | 306° |
| 2026-04-20 16:37 | 48.54266 | 15.82289 | 35987 ft | 400 kts | 306° |
| 2026-04-20 16:37 | 48.57669 | 15.75605 | 36002 ft | 405 kts | 306° |
| 2026-04-20 16:38 | 48.61133 | 15.68774 | 36005 ft | 415 kts | 306° |
| 2026-04-20 16:38 | 48.64677 | 15.61760 | 36008 ft | 424 kts | 306° |
| 2026-04-20 16:39 | 48.68289 | 15.54625 | 36008 ft | 429 kts | 306° |
| 2026-04-20 16:39 | 48.71924 | 15.47429 | 36006 ft | 432 kts | 306° |
| 2026-04-20 16:40 | 48.75566 | 15.40176 | 36008 ft | 433 kts | 306° |
| 2026-04-20 16:40 | 48.79202 | 15.32910 | 36017 ft | 433 kts | 306° |
| 2026-04-20 16:41 | 48.82838 | 15.25641 | 36016 ft | 432 kts | 306° |
| 2026-04-20 16:41 | 48.86473 | 15.18361 | 36018 ft | 432 kts | 306° |
| 2026-04-20 16:42 | 48.90093 | 15.11063 | 36024 ft | 432 kts | 306° |
| 2026-04-20 16:42 | 48.93830 | 15.03894 | 36019 ft | 433 kts | 308° |
| 2026-04-20 16:43 | 48.97675 | 14.96844 | 36024 ft | 433 kts | 308° |
| 2026-04-20 16:43 | 49.01498 | 14.89765 | 36043 ft | 433 kts | 308° |
| 2026-04-20 16:44 | 49.05296 | 14.82620 | 36011 ft | 434 kts | 308° |
| 2026-04-20 16:44 | 49.09090 | 14.75434 | 36027 ft | 435 kts | 308° |
| 2026-04-20 16:45 | 49.12249 | 14.69448 | 36023 ft | 436 kts | 308° |
| 2026-04-20 16:45 | 49.16054 | 14.62240 | 36037 ft | 436 kts | 308° |
| 2026-04-20 16:46 | 49.19846 | 14.55022 | 36042 ft | 436 kts | 307° |
| 2026-04-20 16:46 | 49.23632 | 14.47779 | 36047 ft | 436 kts | 307° |
| 2026-04-20 16:47 | 49.27416 | 14.40538 | 36055 ft | 436 kts | 307° |
| 2026-04-20 16:47 | 49.31196 | 14.33294 | 36060 ft | 436 kts | 308° |
| 2026-04-20 16:48 | 49.34980 | 14.26015 | 36032 ft | 437 kts | 308° |
| 2026-04-20 16:48 | 49.38763 | 14.18712 | 36044 ft | 438 kts | 308° |
| 2026-04-20 16:49 | 49.42551 | 14.11386 | 36049 ft | 438 kts | 308° |
| 2026-04-20 16:49 | 49.46338 | 14.04046 | 36065 ft | 438 kts | 307° |
| 2026-04-20 16:50 | 49.50116 | 13.96696 | 36059 ft | 438 kts | 307° |
| 2026-04-20 16:50 | 49.53864 | 13.89380 | 36072 ft | 438 kts | 307° |
| 2026-04-20 16:51 | 49.57630 | 13.82020 | 36073 ft | 437 kts | 307° |
| 2026-04-20 16:51 | 49.61390 | 13.74652 | 36088 ft | 438 kts | 308° |
| 2026-04-20 16:52 | 49.65149 | 13.67245 | 36067 ft | 439 kts | 308° |
| 2026-04-20 16:52 | 49.68911 | 13.59816 | 36036 ft | 440 kts | 308° |
| 2026-04-20 16:53 | 49.72681 | 13.52377 | 36065 ft | 440 kts | 308° |
| 2026-04-20 16:53 | 49.76441 | 13.44925 | 36075 ft | 439 kts | 307° |
| 2026-04-20 16:54 | 49.80193 | 13.37461 | 36080 ft | 439 kts | 307° |
| 2026-04-20 16:54 | 49.83941 | 13.29979 | 36082 ft | 439 kts | 307° |
| 2026-04-20 16:55 | 49.87679 | 13.22491 | 36082 ft | 439 kts | 307° |
| 2026-04-20 16:55 | 49.91414 | 13.14995 | 36086 ft | 440 kts | 307° |
| 2026-04-20 16:56 | 49.95157 | 13.07464 | 36061 ft | 441 kts | 307° |
| 2026-04-20 16:56 | 49.98902 | 12.99913 | 36057 ft | 442 kts | 307° |
| 2026-04-20 16:57 | 50.02651 | 12.92334 | 36056 ft | 442 kts | 307° |
| 2026-04-20 16:57 | 50.06389 | 12.84742 | 36044 ft | 442 kts | 307° |
| 2026-04-20 16:58 | 50.10129 | 12.77129 | 36049 ft | 443 kts | 307° |
| 2026-04-20 16:58 | 50.13862 | 12.69498 | 36059 ft | 443 kts | 307° |
| 2026-04-20 16:59 | 50.17593 | 12.61852 | 36067 ft | 443 kts | 307° |
| 2026-04-20 16:59 | 50.21317 | 12.54196 | 36083 ft | 443 kts | 307° |
| 2026-04-20 17:00 | 50.26910 | 12.42684 | 36079 ft | 444 kts | 307° |
| 2026-04-20 17:01 | 50.30637 | 12.34981 | 36098 ft | 444 kts | 307° |
| 2026-04-20 17:01 | 50.34398 | 12.27299 | 36102 ft | 445 kts | 308° |
| 2026-04-20 17:02 | 50.38168 | 12.19618 | 36106 ft | 445 kts | 308° |
| 2026-04-20 17:02 | 50.41929 | 12.11918 | 36095 ft | 445 kts | 307° |
| 2026-04-20 17:03 | 50.45680 | 12.04193 | 36094 ft | 445 kts | 307° |
| 2026-04-20 17:03 | 50.49421 | 11.96464 | 36101 ft | 445 kts | 307° |
| 2026-04-20 17:04 | 50.53159 | 11.88725 | 36111 ft | 445 kts | 307° |
| 2026-04-20 17:04 | 50.56897 | 11.80976 | 36118 ft | 445 kts | 307° |
| 2026-04-20 17:05 | 50.60629 | 11.73208 | 36127 ft | 445 kts | 307° |
| 2026-04-20 17:05 | 50.64351 | 11.65433 | 36124 ft | 444 kts | 307° |
| 2026-04-20 17:06 | 50.68064 | 11.57639 | 36135 ft | 444 kts | 307° |
| 2026-04-20 17:06 | 50.71763 | 11.49868 | 36145 ft | 444 kts | 307° |
| 2026-04-20 17:07 | 50.75481 | 11.42041 | 36140 ft | 444 kts | 307° |
| 2026-04-20 17:07 | 50.79180 | 11.34214 | 36145 ft | 445 kts | 307° |
| 2026-04-20 17:08 | 50.82871 | 11.26353 | 36123 ft | 446 kts | 307° |
| 2026-04-20 17:08 | 50.86555 | 11.18483 | 36126 ft | 446 kts | 307° |
| 2026-04-20 17:09 | 50.90261 | 11.10572 | 36132 ft | 447 kts | 307° |
| 2026-04-20 17:09 | 50.93966 | 11.02661 | 36135 ft | 447 kts | 307° |
| 2026-04-20 17:10 | 50.97662 | 10.94734 | 36138 ft | 447 kts | 306° |
| 2026-04-20 17:10 | 51.01358 | 10.86787 | 36130 ft | 447 kts | 306° |
| 2026-04-20 17:11 | 51.05056 | 10.78838 | 36135 ft | 447 kts | 306° |
| 2026-04-20 17:11 | 51.08743 | 10.70860 | 36146 ft | 448 kts | 306° |
| 2026-04-20 17:12 | 51.12419 | 10.62850 | 36139 ft | 449 kts | 306° |
| 2026-04-20 17:12 | 51.16105 | 10.54808 | 36137 ft | 450 kts | 306° |
| 2026-04-20 17:13 | 51.19802 | 10.46745 | 36136 ft | 450 kts | 306° |
| 2026-04-20 17:13 | 51.23486 | 10.38654 | 36143 ft | 451 kts | 306° |
| 2026-04-20 17:14 | 51.26397 | 10.29840 | 36154 ft | 451 kts | 291° |
| 2026-04-20 17:14 | 51.28657 | 10.20492 | 36157 ft | 452 kts | 292° |
| 2026-04-20 17:15 | 51.30931 | 10.11135 | 36161 ft | 452 kts | 292° |
| 2026-04-20 17:15 | 51.33193 | 10.01756 | 36160 ft | 452 kts | 291° |
| 2026-04-20 17:16 | 51.35439 | 9.92367 | 36169 ft | 452 kts | 291° |
| 2026-04-20 17:16 | 51.37678 | 9.82952 | 36173 ft | 453 kts | 291° |
| 2026-04-20 17:17 | 51.39912 | 9.73526 | 36177 ft | 453 kts | 291° |
| 2026-04-20 17:17 | 51.42143 | 9.64092 | 36175 ft | 454 kts | 291° |
| 2026-04-20 17:18 | 51.44370 | 9.54621 | 36162 ft | 455 kts | 291° |
| 2026-04-20 17:18 | 51.46595 | 9.45121 | 36167 ft | 455 kts | 291° |
| 2026-04-20 17:19 | 51.48818 | 9.35599 | 36181 ft | 456 kts | 291° |
| 2026-04-20 17:19 | 51.51036 | 9.26060 | 36188 ft | 456 kts | 291° |
| 2026-04-20 17:20 | 51.53247 | 9.16509 | 36192 ft | 456 kts | 291° |
| 2026-04-20 17:20 | 51.55449 | 9.06950 | 36201 ft | 456 kts | 291° |
| 2026-04-20 17:21 | 51.57644 | 8.97370 | 36205 ft | 456 kts | 291° |
| 2026-04-20 17:21 | 51.59825 | 8.87791 | 36209 ft | 456 kts | 291° |
| 2026-04-20 17:22 | 51.62002 | 8.78199 | 36211 ft | 456 kts | 290° |
| 2026-04-20 17:22 | 51.64168 | 8.68596 | 36204 ft | 456 kts | 290° |
| 2026-04-20 17:23 | 51.66332 | 8.58996 | 36205 ft | 456 kts | 290° |
| 2026-04-20 17:23 | 51.68480 | 8.49382 | 36205 ft | 456 kts | 290° |
| 2026-04-20 17:24 | 51.70620 | 8.39769 | 36209 ft | 456 kts | 290° |
| 2026-04-20 17:24 | 51.72752 | 8.30141 | 36207 ft | 456 kts | 290° |
| 2026-04-20 17:25 | 51.74882 | 8.20512 | 36201 ft | 456 kts | 290° |
| 2026-04-20 17:25 | 51.77004 | 8.10880 | 36206 ft | 456 kts | 290° |
| 2026-04-20 17:26 | 51.79119 | 8.01208 | 36200 ft | 457 kts | 290° |
| 2026-04-20 17:26 | 51.81231 | 7.91517 | 36203 ft | 458 kts | 290° |
| 2026-04-20 17:27 | 51.83335 | 7.81798 | 36204 ft | 458 kts | 290° |
| 2026-04-20 17:27 | 51.85077 | 7.73698 | 36207 ft | 458 kts | 290° |
| 2026-04-20 17:28 | 51.87627 | 7.64271 | 36212 ft | 458 kts | 296° |
| 2026-04-20 17:28 | 51.90393 | 7.54986 | 36215 ft | 458 kts | 296° |
| 2026-04-20 17:29 | 51.93155 | 7.45705 | 36214 ft | 458 kts | 296° |
| 2026-04-20 17:29 | 51.95906 | 7.36400 | 36221 ft | 458 kts | 296° |
| 2026-04-20 17:30 | 51.98638 | 7.27079 | 36216 ft | 458 kts | 296° |
| 2026-04-20 17:30 | 52.01358 | 7.17746 | 36222 ft | 457 kts | 296° |
| 2026-04-20 17:31 | 52.04078 | 7.08412 | 36226 ft | 457 kts | 296° |
| 2026-04-20 17:31 | 52.06790 | 6.99058 | 36226 ft | 458 kts | 295° |
| 2026-04-20 17:32 | 52.09489 | 6.89683 | 36224 ft | 458 kts | 295° |
| 2026-04-20 17:32 | 52.12159 | 6.80279 | 36215 ft | 458 kts | 295° |
| 2026-04-20 17:33 | 52.14559 | 6.70679 | 36214 ft | 458 kts | 290° |
| 2026-04-20 17:33 | 52.16754 | 6.60925 | 36216 ft | 459 kts | 290° |
| 2026-04-20 17:34 | 52.18935 | 6.51160 | 36221 ft | 459 kts | 290° |
| 2026-04-20 17:34 | 52.21092 | 6.41372 | 36217 ft | 459 kts | 290° |
| 2026-04-20 17:35 | 52.23230 | 6.31568 | 36228 ft | 459 kts | 290° |
| 2026-04-20 17:35 | 52.25409 | 6.21783 | 36233 ft | 458 kts | 292° |
| 2026-04-20 17:36 | 52.27981 | 6.12271 | 36237 ft | 458 kts | 296° |
| 2026-04-20 17:36 | 52.30725 | 6.02881 | 36234 ft | 458 kts | 296° |
| 2026-04-20 17:37 | 52.33390 | 5.93424 | 36236 ft | 458 kts | 295° |
| 2026-04-20 17:37 | 52.35970 | 5.83895 | 36247 ft | 458 kts | 294° |
| 2026-04-20 17:38 | 52.38533 | 5.74354 | 36252 ft | 458 kts | 295° |
| 2026-04-20 17:38 | 52.41097 | 5.64813 | 36252 ft | 457 kts | 294° |
| 2026-04-20 17:39 | 52.43662 | 5.55291 | 36264 ft | 457 kts | 294° |
| 2026-04-20 17:39 | 52.46220 | 5.45745 | 36257 ft | 457 kts | 294° |
| 2026-04-20 17:40 | 52.48766 | 5.36188 | 36252 ft | 457 kts | 294° |
| 2026-04-20 17:40 | 52.51309 | 5.26632 | 36260 ft | 457 kts | 294° |
| 2026-04-20 17:41 | 52.53844 | 5.17076 | 36257 ft | 456 kts | 294° |
| 2026-04-20 17:41 | 52.56361 | 5.07514 | 36263 ft | 456 kts | 294° |
| 2026-04-20 17:42 | 52.58873 | 4.97931 | 36241 ft | 456 kts | 294° |
| 2026-04-20 17:42 | 52.61375 | 4.88352 | 36241 ft | 456 kts | 294° |
| 2026-04-20 17:43 | 52.63869 | 4.78750 | 36243 ft | 456 kts | 294° |
| 2026-04-20 17:43 | 52.66336 | 4.69207 | 36248 ft | 456 kts | 294° |
| 2026-04-20 17:44 | 52.68814 | 4.59598 | 36264 ft | 455 kts | 294° |
| 2026-04-20 17:44 | 52.71288 | 4.49995 | 36242 ft | 455 kts | 294° |
| 2026-04-20 17:45 | 52.73748 | 4.40368 | 36245 ft | 456 kts | 293° |
| 2026-04-20 17:45 | 52.76539 | 4.31009 | 36243 ft | 455 kts | 300° |
| 2026-04-20 17:46 | 52.79642 | 4.21877 | 36264 ft | 455 kts | 300° |
| 2026-04-20 17:46 | 52.82757 | 4.12688 | 36263 ft | 455 kts | 299° |
| 2026-04-20 17:47 | 52.85847 | 4.03534 | 36270 ft | 455 kts | 299° |
| 2026-04-20 17:47 | 52.88903 | 3.94437 | 36292 ft | 454 kts | 300° |
| 2026-04-20 17:48 | 52.91959 | 3.85300 | 36300 ft | 453 kts | 299° |
| 2026-04-20 17:48 | 52.95014 | 3.76117 | 36288 ft | 453 kts | 299° |
| 2026-04-20 17:49 | 52.98062 | 3.66931 | 36268 ft | 454 kts | 300° |
| 2026-04-20 17:49 | 53.01759 | 3.58595 | 36279 ft | 453 kts | 318° |
| 2026-04-20 17:49 | 53.04311 | 3.55429 | 36268 ft | 454 kts | 329° |
| 2026-04-20 17:50 | 53.07168 | 3.53207 | 36276 ft | 454 kts | 340° |
| 2026-04-20 17:50 | 53.13153 | 3.49786 | 36277 ft | 455 kts | 340° |
| 2026-04-20 17:51 | 53.19135 | 3.46325 | 36280 ft | 455 kts | 340° |
| 2026-04-20 17:51 | 53.24663 | 3.41310 | 36266 ft | 455 kts | 319° |
| 2026-04-20 17:52 | 53.28690 | 3.33190 | 36261 ft | 457 kts | 303° |
| 2026-04-20 17:52 | 53.32125 | 3.24229 | 36265 ft | 458 kts | 303° |
| 2026-04-20 17:53 | 53.35579 | 3.15237 | 36262 ft | 460 kts | 303° |
| 2026-04-20 17:53 | 53.39032 | 3.06209 | 36264 ft | 461 kts | 303° |
| 2026-04-20 17:54 | 53.42483 | 2.97155 | 36276 ft | 461 kts | 303° |
| 2026-04-20 17:54 | 53.45930 | 2.88073 | 36289 ft | 462 kts | 303° |
| 2026-04-20 17:55 | 53.49361 | 2.78997 | 36319 ft | 460 kts | 302° |
| 2026-04-20 17:55 | 53.52777 | 2.69922 | 36318 ft | 458 kts | 303° |
| 2026-04-20 17:56 | 53.56173 | 2.60874 | 36313 ft | 458 kts | 303° |
| 2026-04-20 17:56 | 53.59571 | 2.51813 | 36299 ft | 458 kts | 302° |
| 2026-04-20 17:57 | 53.62959 | 2.42728 | 36320 ft | 458 kts | 302° |
| 2026-04-20 17:57 | 53.66316 | 2.33682 | 36312 ft | 458 kts | 302° |
| 2026-04-20 17:58 | 53.69707 | 2.24519 | 36331 ft | 457 kts | 302° |
| 2026-04-20 17:58 | 53.73039 | 2.15490 | 36344 ft | 456 kts | 303° |
| 2026-04-20 17:59 | 53.76393 | 2.06387 | 36326 ft | 456 kts | 302° |
| 2026-04-20 17:59 | 53.79743 | 1.97265 | 36323 ft | 457 kts | 302° |
| 2026-04-20 18:00 | 53.83084 | 1.88111 | 36324 ft | 458 kts | 302° |
| 2026-04-20 18:00 | 53.86423 | 1.78911 | 36320 ft | 459 kts | 302° |
| 2026-04-20 18:01 | 53.89763 | 1.69680 | 36325 ft | 460 kts | 303° |
| 2026-04-20 18:01 | 53.93098 | 1.60439 | 36343 ft | 459 kts | 302° |
| 2026-04-20 18:02 | 53.96425 | 1.51196 | 36336 ft | 459 kts | 302° |
| 2026-04-20 18:02 | 53.99745 | 1.41922 | 36331 ft | 460 kts | 302° |
| 2026-04-20 18:03 | 54.03058 | 1.32624 | 36329 ft | 461 kts | 302° |
| 2026-04-20 18:03 | 54.06385 | 1.23270 | 36344 ft | 461 kts | 302° |
| 2026-04-20 18:04 | 54.09700 | 1.13921 | 36336 ft | 462 kts | 301° |
| 2026-04-20 18:04 | 54.13012 | 1.04539 | 36340 ft | 462 kts | 301° |
| 2026-04-20 18:05 | 54.17948 | 0.90449 | 36359 ft | 461 kts | 301° |
| 2026-04-20 18:05 | 54.21238 | 0.81037 | 36359 ft | 461 kts | 301° |
| 2026-04-20 18:06 | 54.24517 | 0.71617 | 36366 ft | 461 kts | 301° |
| 2026-04-20 18:06 | 54.27789 | 0.62174 | 36360 ft | 462 kts | 301° |
| 2026-04-20 18:07 | 54.31056 | 0.52707 | 36358 ft | 461 kts | 301° |
| 2026-04-20 18:07 | 54.34306 | 0.43240 | 36358 ft | 461 kts | 301° |
| 2026-04-20 18:08 | 54.37560 | 0.33739 | 36357 ft | 462 kts | 301° |
| 2026-04-20 18:08 | 54.40795 | 0.24218 | 36350 ft | 462 kts | 301° |
| 2026-04-20 18:09 | 54.44045 | 0.14679 | 36356 ft | 463 kts | 301° |
| 2026-04-20 18:09 | 54.46733 | 0.06739 | 36365 ft | 463 kts | 301° |
| 2026-04-20 18:10 | 54.49959 | -0.02836 | 36365 ft | 463 kts | 301° |
| 2026-04-20 18:10 | 54.53197 | -0.12417 | 36359 ft | 463 kts | 301° |
| 2026-04-20 18:11 | 54.56433 | -0.22027 | 36360 ft | 464 kts | 301° |
| 2026-04-20 18:11 | 54.59650 | -0.31667 | 36370 ft | 464 kts | 301° |
| 2026-04-20 18:12 | 54.62861 | -0.41324 | 36372 ft | 464 kts | 300° |
| 2026-04-20 18:12 | 54.66056 | -0.50993 | 36374 ft | 464 kts | 300° |
| 2026-04-20 18:13 | 54.69247 | -0.60674 | 36373 ft | 464 kts | 300° |
| 2026-04-20 18:13 | 54.72432 | -0.70373 | 36380 ft | 463 kts | 300° |
| 2026-04-20 18:14 | 54.75607 | -0.80078 | 36385 ft | 463 kts | 300° |
| 2026-04-20 18:14 | 54.78772 | -0.89800 | 36385 ft | 464 kts | 300° |
| 2026-04-20 18:15 | 54.81938 | -0.99553 | 36239 ft | 466 kts | 300° |
| 2026-04-20 18:15 | 54.83521 | -1.04453 | 35942 ft | 466 kts | 300° |
| 2026-04-20 18:15 | 54.85103 | -1.09356 | 35699 ft | 466 kts | 300° |
| 2026-04-20 18:16 | 54.86680 | -1.14256 | 35309 ft | 464 kts | 300° |
| 2026-04-20 18:16 | 54.88248 | -1.19144 | 34745 ft | 462 kts | 300° |
| 2026-04-20 18:16 | 54.89788 | -1.23958 | 34497 ft | 450 kts | 300° |
| 2026-04-20 18:16 | 54.91297 | -1.28684 | 33963 ft | 445 kts | 300° |
| 2026-04-20 18:17 | 54.92790 | -1.33362 | 33429 ft | 439 kts | 298° |
| 2026-04-20 18:17 | 54.94267 | -1.37993 | 32835 ft | 436 kts | 300° |
| 2026-04-20 18:17 | 54.95733 | -1.42579 | 32259 ft | 433 kts | 300° |
| 2026-04-20 18:17 | 54.97189 | -1.47141 | 31714 ft | 429 kts | 300° |
| 2026-04-20 18:18 | 54.98626 | -1.51667 | 31184 ft | 425 kts | 299° |
| 2026-04-20 18:18 | 55.00045 | -1.56160 | 30666 ft | 422 kts | 299° |
| 2026-04-20 18:18 | 55.01458 | -1.60642 | 29964 ft | 422 kts | 299° |
| 2026-04-20 18:18 | 55.02862 | -1.65098 | 29527 ft | 415 kts | 299° |
| 2026-04-20 18:19 | 55.04242 | -1.69475 | 29057 ft | 409 kts | 299° |
| 2026-04-20 18:19 | 55.05600 | -1.73791 | 28623 ft | 403 kts | 299° |
| 2026-04-20 18:19 | 55.06937 | -1.78055 | 28180 ft | 397 kts | 299° |
| 2026-04-20 18:19 | 55.08248 | -1.82250 | 27732 ft | 392 kts | 299° |
| 2026-04-20 18:20 | 55.09546 | -1.86409 | 27301 ft | 387 kts | 299° |
| 2026-04-20 18:20 | 55.10826 | -1.90514 | 26854 ft | 383 kts | 299° |
| 2026-04-20 18:20 | 55.12095 | -1.94584 | 26409 ft | 380 kts | 299° |
| 2026-04-20 18:20 | 55.13371 | -1.98612 | 25866 ft | 379 kts | 300° |
| 2026-04-20 18:21 | 55.14683 | -2.02612 | 25324 ft | 379 kts | 300° |
| 2026-04-20 18:21 | 55.16011 | -2.06592 | 24773 ft | 379 kts | 301° |
| 2026-04-20 18:21 | 55.17344 | -2.10578 | 24226 ft | 380 kts | 300° |
| 2026-04-20 18:21 | 55.18671 | -2.14569 | 23628 ft | 380 kts | 300° |
| 2026-04-20 18:22 | 55.19993 | -2.18569 | 23071 ft | 379 kts | 300° |
| 2026-04-20 18:22 | 55.21302 | -2.22554 | 22565 ft | 376 kts | 301° |
| 2026-04-20 18:22 | 55.22591 | -2.26503 | 22030 ft | 374 kts | 301° |
| 2026-04-20 18:22 | 55.23874 | -2.30444 | 21561 ft | 371 kts | 301° |
| 2026-04-20 18:23 | 55.25157 | -2.34387 | 20925 ft | 373 kts | 300° |
| 2026-04-20 18:23 | 55.26441 | -2.38332 | 20448 ft | 371 kts | 300° |
| 2026-04-20 18:23 | 55.27718 | -2.42256 | 19926 ft | 371 kts | 300° |
| 2026-04-20 18:23 | 55.28984 | -2.46156 | 19589 ft | 366 kts | 300° |
| 2026-04-20 18:24 | 55.30239 | -2.50029 | 19134 ft | 364 kts | 300° |
| 2026-04-20 18:24 | 55.31485 | -2.53881 | 18711 ft | 362 kts | 300° |
| 2026-04-20 18:24 | 55.32724 | -2.57717 | 18249 ft | 360 kts | 300° |
| 2026-04-20 18:24 | 55.33951 | -2.61526 | 17786 ft | 358 kts | 300° |
| 2026-04-20 18:25 | 55.35173 | -2.65324 | 17335 ft | 356 kts | 300° |
| 2026-04-20 18:25 | 55.36384 | -2.69093 | 16885 ft | 353 kts | 300° |
| 2026-04-20 18:25 | 55.37589 | -2.72849 | 16456 ft | 351 kts | 300° |
| 2026-04-20 18:25 | 55.38783 | -2.76586 | 16053 ft | 349 kts | 300° |
| 2026-04-20 18:26 | 55.39968 | -2.80296 | 15642 ft | 348 kts | 300° |
| 2026-04-20 18:26 | 55.41150 | -2.84003 | 15220 ft | 346 kts | 300° |
| 2026-04-20 18:26 | 55.42323 | -2.87691 | 14824 ft | 345 kts | 299° |
| 2026-04-20 18:26 | 55.43493 | -2.91365 | 14418 ft | 343 kts | 299° |
| 2026-04-20 18:27 | 55.44667 | -2.95010 | 14033 ft | 341 kts | 302° |
| 2026-04-20 18:27 | 55.46164 | -2.98196 | 13640 ft | 337 kts | 319° |
| 2026-04-20 18:27 | 55.48069 | -3.00496 | 13384 ft | 327 kts | 335° |
| 2026-04-20 18:27 | 55.50163 | -3.01857 | 13218 ft | 316 kts | 344° |
| 2026-04-20 18:28 | 55.52242 | -3.03001 | 12948 ft | 311 kts | 344° |
| 2026-04-20 18:28 | 55.54303 | -3.04141 | 12597 ft | 309 kts | 345° |
| 2026-04-20 18:28 | 55.56350 | -3.05279 | 12243 ft | 308 kts | 345° |
| 2026-04-20 18:28 | 55.58384 | -3.06414 | 11895 ft | 306 kts | 344° |
| 2026-04-20 18:29 | 55.60404 | -3.07544 | 11566 ft | 303 kts | 343° |
| 2026-04-20 18:29 | 55.62411 | -3.08666 | 11191 ft | 302 kts | 343° |
| 2026-04-20 18:29 | 55.64410 | -3.09781 | 10829 ft | 301 kts | 344° |
| 2026-04-20 18:29 | 55.66406 | -3.10892 | 10510 ft | 298 kts | 344° |
| 2026-04-20 18:30 | 55.68342 | -3.11992 | 10379 ft | 288 kts | 341° |
| 2026-04-20 18:30 | 55.69974 | -3.13898 | 10256 ft | 280 kts | 310° |
| 2026-04-20 18:30 | 55.70797 | -3.16933 | 9968 ft | 275 kts | 277° |
| 2026-04-20 18:30 | 55.70616 | -3.20230 | 9642 ft | 269 kts | 251° |
| 2026-04-20 18:31 | 55.70043 | -3.23408 | 9236 ft | 270 kts | 251° |
| 2026-04-20 18:31 | 55.69459 | -3.26572 | 8855 ft | 270 kts | 251° |
| 2026-04-20 18:31 | 55.68875 | -3.29730 | 8501 ft | 269 kts | 250° |
| 2026-04-20 18:31 | 55.68296 | -3.32878 | 8095 ft | 269 kts | 251° |
| 2026-04-20 18:32 | 55.67722 | -3.36015 | 7745 ft | 265 kts | 251° |
| 2026-04-20 18:32 | 55.67158 | -3.39109 | 7132 ft | 264 kts | 251° |
| 2026-04-20 18:32 | 55.66598 | -3.42174 | 6642 ft | 258 kts | 251° |
| 2026-04-20 18:32 | 55.66051 | -3.45160 | 6582 ft | 258 kts | 251° |
| 2026-04-20 18:33 | 55.65493 | -3.48187 | 6519 ft | 258 kts | 250° |
| 2026-04-20 18:33 | 55.64960 | -3.51265 | 6244 ft | 265 kts | 258° |
| 2026-04-20 18:33 | 55.64930 | -3.54462 | 6039 ft | 256 kts | 281° |
| 2026-04-20 18:33 | 55.65489 | -3.57352 | 5904 ft | 243 kts | 301° |
| 2026-04-20 18:34 | 55.66498 | -3.59653 | 5785 ft | 233 kts | 320° |
| 2026-04-20 18:34 | 55.67707 | -3.61584 | 5668 ft | 235 kts | 320° |
| 2026-04-20 18:34 | 55.68916 | -3.63530 | 5546 ft | 235 kts | 321° |
| 2026-04-20 18:34 | 55.70131 | -3.65400 | 5427 ft | 233 kts | 322° |
| 2026-04-20 18:35 | 55.71392 | -3.67240 | 5305 ft | 230 kts | 324° |
| 2026-04-20 18:35 | 55.72599 | -3.68977 | 5191 ft | 223 kts | 323° |
| 2026-04-20 18:35 | 55.73780 | -3.70677 | 5071 ft | 215 kts | 323° |
| 2026-04-20 18:35 | 55.74921 | -3.72321 | 4965 ft | 211 kts | 324° |
| 2026-04-20 18:36 | 55.76038 | -3.74014 | 4852 ft | 211 kts | 320° |
| 2026-04-20 18:36 | 55.77097 | -3.75842 | 4750 ft | 219 kts | 317° |
| 2026-04-20 18:36 | 55.78250 | -3.77516 | 4631 ft | 208 kts | 340° |
| 2026-04-20 18:36 | 55.79581 | -3.78029 | 4567 ft | 189 kts | 8° |
| 2026-04-20 18:37 | 55.80759 | -3.77463 | 4481 ft | 164 kts | 32° |
| 2026-04-20 18:37 | 55.81575 | -3.76286 | 4409 ft | 141 kts | 53° |
| 2026-04-20 18:37 | 55.82135 | -3.74926 | 4366 ft | 134 kts | 62° |
| 2026-04-20 18:37 | 55.82619 | -3.73505 | 4286 ft | 134 kts | 62° |
| 2026-04-20 18:38 | 55.83107 | -3.72086 | 4207 ft | 134 kts | 62° |
| 2026-04-20 18:38 | 55.83595 | -3.70665 | 4130 ft | 135 kts | 61° |
| 2026-04-20 18:38 | 55.84085 | -3.69245 | 4060 ft | 134 kts | 61° |
| 2026-04-20 18:38 | 55.84576 | -3.67815 | 3902 ft | 135 kts | 61° |
| 2026-04-20 18:39 | 55.85064 | -3.66397 | 3712 ft | 133 kts | 61° |
| 2026-04-20 18:39 | 55.85548 | -3.64987 | 3528 ft | 134 kts | 61° |
| 2026-04-20 18:39 | 55.86031 | -3.63578 | 3342 ft | 133 kts | 61° |
| 2026-04-20 18:39 | 55.86509 | -3.62182 | 3176 ft | 132 kts | 62° |
| 2026-04-20 18:40 | 55.86986 | -3.60790 | 3103 ft | 131 kts | 62° |
| 2026-04-20 18:40 | 55.87461 | -3.59403 | 3066 ft | 132 kts | 62° |
| 2026-04-20 18:40 | 55.87936 | -3.57999 | 2885 ft | 134 kts | 63° |
| 2026-04-20 18:40 | 55.88417 | -3.56582 | 2513 ft | 134 kts | 62° |
| 2026-04-20 18:41 | 55.88893 | -3.55184 | 2306 ft | 130 kts | 63° |
| 2026-04-20 18:41 | 55.89361 | -3.53813 | 2148 ft | 129 kts | 63° |
| 2026-04-20 18:41 | 55.89827 | -3.52447 | 1971 ft | 129 kts | 62° |
| 2026-04-20 18:41 | 55.90295 | -3.51074 | 1794 ft | 129 kts | 62° |
| 2026-04-20 18:42 | 55.90758 | -3.49717 | 1614 ft | 129 kts | 62° |
| 2026-04-20 18:42 | 55.91222 | -3.48356 | 1435 ft | 128 kts | 61° |
| 2026-04-20 18:42 | 55.91684 | -3.47000 | 1260 ft | 127 kts | 61° |
| 2026-04-20 18:42 | 55.92148 | -3.45638 | 1070 ft | 128 kts | 61° |
| 2026-04-20 18:43 | 55.92612 | -3.44274 | 876 ft | 128 kts | 58° |
| 2026-04-20 18:43 | 55.93074 | -3.42916 | 708 ft | 128 kts | 60° |
| 2026-04-20 18:43 | 55.93539 | -3.41548 | 535 ft | 129 kts | 59° |
| 2026-04-20 18:43 | 55.94002 | -3.40183 | 326 ft | 129 kts | 58° |
| 2026-04-20 18:44 | 55.94467 | -3.38814 | 155 ft | 129 kts | 59° |
| 2026-04-20 18:44 | 55.94894 | -3.37549 | 110 ft | 101 kts | 59° |
| 2026-04-20 18:44 | 55.95166 | -3.36749 | 109 ft | 47 kts | 59° |
| 2026-04-20 18:44 | 55.95262 | -3.36420 | 102 ft | 9 kts | 120° |
| 2026-04-20 18:45 | 55.95206 | -3.36364 | 102 ft | 9 kts | 149° |
| 2026-04-20 18:45 | 55.95195 | -3.36353 | 101 ft | 0 kts | 149° |
| 2026-04-20 18:45 | 55.95141 | -3.36323 | 104 ft | 19 kts | 184° |
| 2026-04-20 18:45 | 55.95045 | -3.36386 | 107 ft | 19 kts | 179° |
| 2026-04-20 18:46 | 55.94981 | -3.36506 | 106 ft | 13 kts | 237° |
| 2026-04-20 18:46 | 55.94933 | -3.36592 | 106 ft | 6 kts | 166° |
| 2026-04-20 18:46 | 55.94896 | -3.36565 | 106 ft | 5 kts | 150° |
| 2026-04-20 18:46 | 55.94878 | -3.36545 | 107 ft | 0 kts | 148° |